createdAt,value
2023-02-27T00:01:14.997Z,98843.13
2023-02-27T00:03:42.075Z,98851.13
2023-02-27T00:06:09.151Z,98858.81
2023-02-27T00:08:36.337Z,98853.16
2023-02-27T00:11:03.448Z,98857.41
2023-02-27T00:13:30.485Z,98859.34
2023-02-27T00:15:57.584Z,98855.59
2023-02-27T00:18:24.813Z,98869.38
2023-02-27T00:20:51.867Z,98865.91
2023-02-27T00:23:18.957Z,98862.53
2023-02-27T00:25:46.031Z,98859.94
2023-02-27T00:28:13.325Z,98863.38
2023-02-27T00:30:40.416Z,98858.38
2023-02-27T00:33:07.889Z,98859.22
2023-02-27T00:35:34.950Z,98860.72
2023-02-27T00:38:02.482Z,98863.41
2023-02-27T00:40:30.555Z,98855.78
2023-02-27T00:42:57.614Z,98855.47
2023-02-27T00:45:24.677Z,98845.03
2023-02-27T00:47:51.933Z,98856.97
2023-02-27T00:50:19.036Z,98854.75
2023-02-27T00:52:46.081Z,98847.53
2023-02-27T00:55:13.279Z,98841.13
2023-02-27T00:57:40.771Z,98848.34
2023-02-27T01:00:09.660Z,98844.19
2023-02-27T01:02:37.169Z,98835.91
2023-02-27T01:05:05.396Z,98834.91
2023-02-27T01:07:32.507Z,98834.66
2023-02-27T01:10:01.029Z,98847.72
2023-02-27T01:12:28.136Z,98849.44
2023-02-27T01:14:55.256Z,98849.50
2023-02-27T01:17:22.319Z,98852.00
2023-02-27T01:19:49.371Z,98847.13
2023-02-27T01:22:16.655Z,98845.59
2023-02-27T01:24:43.997Z,98848.28
2023-02-27T01:27:11.619Z,98848.28
2023-02-27T01:29:38.779Z,98842.94
2023-02-27T01:32:06.072Z,98850.91
2023-02-27T01:34:34.336Z,98842.13
2023-02-27T01:37:02.525Z,98847.59
2023-02-27T01:39:29.628Z,98847.97
2023-02-27T01:41:56.690Z,98841.88
2023-02-27T01:44:27.513Z,98848.28
2023-02-27T01:46:55.177Z,98844.47
2023-02-27T01:49:26.070Z,98844.47
2023-02-27T01:52:06.095Z,98854.81
2023-02-27T01:54:36.748Z,98855.22
2023-02-27T01:57:06.696Z,98850.28
2023-02-27T01:59:35.320Z,98860.31
2023-02-27T02:02:05.314Z,98857.31
2023-02-27T02:04:35.500Z,98861.50
2023-02-27T02:07:09.704Z,98863.06
2023-02-27T02:09:41.556Z,98867.75
2023-02-27T02:12:10.591Z,98867.78
2023-02-27T02:14:37.704Z,98868.88
2023-02-27T02:17:29.052Z,98869.59
2023-02-27T02:20:39.547Z,98871.47
2023-02-27T02:23:29.035Z,98876.75
2023-02-27T02:26:24.726Z,98868.00
2023-02-27T02:29:16.379Z,98875.34
2023-02-27T02:32:03.630Z,98872.66
2023-02-27T02:34:52.661Z,98871.50
2023-02-27T02:37:57.450Z,98868.53
2023-02-27T02:40:44.257Z,98869.66
2023-02-27T02:43:15.292Z,98881.50
2023-02-27T02:45:55.274Z,98878.84
2023-02-27T02:48:47.753Z,98884.97
2023-02-27T02:51:38.986Z,98884.63
2023-02-27T02:54:13.135Z,98883.13
2023-02-27T02:56:45.966Z,98891.22
2023-02-27T02:59:18.573Z,98888.59
2023-02-27T03:02:09.764Z,98888.59
2023-02-27T03:04:56.459Z,98893.91
2023-02-27T03:07:46.488Z,98897.34
2023-02-27T03:10:25.222Z,98899.22
2023-02-27T03:12:58.793Z,98897.69
2023-02-27T03:15:31.264Z,98895.41
2023-02-27T03:17:58.210Z,98891.59
2023-02-27T03:20:29.701Z,98893.50
2023-02-27T03:23:00.438Z,98890.84
2023-02-27T03:25:28.841Z,98902.25
2023-02-27T03:28:00.553Z,98897.72
2023-02-27T03:30:53.338Z,98900.78
2023-02-27T03:33:25.414Z,98898.88
2023-02-27T03:36:15.224Z,98908.84
2023-02-27T03:38:48.355Z,98916.44
2023-02-27T03:41:35.056Z,98920.97
2023-02-27T03:44:09.342Z,98915.97
2023-02-27T03:46:36.917Z,98922.88
2023-02-27T03:49:04.656Z,98924.00
2023-02-27T03:51:32.165Z,98925.53
2023-02-27T03:54:09.714Z,98923.59
2023-02-27T03:56:41.692Z,98930.47
2023-02-27T03:59:08.762Z,98928.59
2023-02-27T04:01:35.983Z,98926.69
2023-02-27T04:04:07.005Z,98938.84
2023-02-27T04:06:54.154Z,98933.91
2023-02-27T04:09:52.073Z,98932.72
2023-02-27T04:12:47.030Z,98936.97
2023-02-27T04:15:46.178Z,98946.84
2023-02-27T04:18:34.355Z,98936.56
2023-02-27T04:21:08.467Z,98933.13
2023-02-27T04:23:49.357Z,98933.50
2023-02-27T04:26:30.752Z,98942.63
2023-02-27T04:29:07.975Z,98941.06
2023-02-27T04:31:46.222Z,98946.03
2023-02-27T04:34:33.853Z,98955.13
2023-02-27T04:37:10.651Z,98944.09
2023-02-27T04:39:43.501Z,98949.03
2023-02-27T04:42:15.451Z,98945.22
2023-02-27T04:44:43.183Z,98954.41
2023-02-27T04:47:12.025Z,98954.75
2023-02-27T04:49:46.716Z,98950.94
2023-02-27T04:52:33.320Z,98957.78
2023-02-27T04:55:06.689Z,98960.78
2023-02-27T04:57:48.986Z,98955.06
2023-02-27T05:00:17.091Z,98960.00
2023-02-27T05:02:47.656Z,98951.97
2023-02-27T05:05:18.254Z,98951.91
2023-02-27T05:07:50.555Z,98952.25
2023-02-27T05:10:34.366Z,98951.81
2023-02-27T05:13:06.746Z,98968.19
2023-02-27T05:15:38.963Z,98962.09
2023-02-27T05:18:08.469Z,98968.94
2023-02-27T05:20:49.337Z,98956.34
2023-02-27T05:23:23.084Z,98968.91
2023-02-27T05:26:04.351Z,98972.72
2023-02-27T05:28:44.978Z,98971.59
2023-02-27T05:31:26.034Z,98978.88
2023-02-27T05:34:05.884Z,98972.00
2023-02-27T05:36:47.992Z,98973.59
2023-02-27T05:39:15.653Z,98965.59
2023-02-27T05:41:54.533Z,98965.91
2023-02-27T05:44:24.012Z,98969.66
2023-02-27T05:46:58.626Z,98972.25
2023-02-27T05:49:35.966Z,98974.81
2023-02-27T05:52:05.218Z,98971.72
2023-02-27T05:54:37.275Z,98971.28
2023-02-27T05:57:09.386Z,98972.44
2023-02-27T05:59:58.584Z,98974.75
2023-02-27T06:02:25.866Z,98968.72
2023-02-27T06:04:53.004Z,98968.03
2023-02-27T06:07:20.875Z,98973.00
2023-02-27T06:09:48.221Z,98981.31
2023-02-27T06:12:15.315Z,98983.59
2023-02-27T06:14:42.365Z,98982.75
2023-02-27T06:17:09.551Z,98988.78
2023-02-27T06:19:36.593Z,98989.06
2023-02-27T06:22:04.164Z,98998.16
2023-02-27T06:24:31.190Z,98998.09
2023-02-27T06:26:58.386Z,99007.22
2023-02-27T06:29:25.436Z,99001.16
2023-02-27T06:31:52.580Z,99010.22
2023-02-27T06:34:19.659Z,99012.09
2023-02-27T06:36:46.825Z,99021.19
2023-02-27T06:39:13.837Z,99011.97
2023-02-27T06:41:40.941Z,99016.91
2023-02-27T06:44:08.048Z,99018.03
2023-02-27T06:46:35.155Z,99021.03
2023-02-27T06:49:02.241Z,99023.78
2023-02-27T06:51:29.377Z,99027.94
2023-02-27T06:53:56.464Z,99026.72
2023-02-27T06:56:23.586Z,99032.41
2023-02-27T06:58:50.635Z,99023.22
2023-02-27T07:01:18.020Z,99031.53
2023-02-27T07:03:45.144Z,99033.75
2023-02-27T07:06:12.704Z,99034.03
2023-02-27T07:08:54.444Z,99035.59
2023-02-27T07:11:26.754Z,99048.94
2023-02-27T07:13:53.852Z,99047.03
2023-02-27T07:16:20.900Z,99043.22
2023-02-27T07:18:47.973Z,99048.13
2023-02-27T07:21:17.693Z,99051.91
2023-02-27T07:23:44.762Z,99060.19
2023-02-27T07:26:12.952Z,99063.16
2023-02-27T07:28:40.081Z,99059.94
2023-02-27T07:31:07.212Z,99062.94
2023-02-27T07:33:34.368Z,99051.03
2023-02-27T07:36:01.489Z,99057.06
2023-02-27T07:38:28.913Z,99064.69
2023-02-27T07:40:56.110Z,99058.88
2023-02-27T07:43:23.651Z,99053.84
2023-02-27T07:45:51.702Z,99052.25
2023-02-27T07:48:19.126Z,99050.38
2023-02-27T07:50:46.150Z,99050.53
2023-02-27T07:53:13.526Z,99048.13
2023-02-27T07:55:40.731Z,99041.41
2023-02-27T07:58:07.811Z,99032.81
2023-02-27T08:00:34.860Z,99037.94
2023-02-27T08:03:02.007Z,99039.06
2023-02-27T08:05:29.242Z,99038.94
2023-02-27T08:07:56.332Z,99039.56
2023-02-27T08:10:23.615Z,99038.28
2023-02-27T08:12:50.936Z,99044.00
2023-02-27T08:15:18.003Z,99044.31
2023-02-27T08:17:45.798Z,99038.81
2023-02-27T08:20:13.961Z,99040.16
2023-02-27T08:22:41.323Z,99047.59
2023-02-27T08:25:11.163Z,99052.03
2023-02-27T08:27:38.835Z,99056.16
2023-02-27T08:30:08.008Z,99057.19
2023-02-27T08:32:35.317Z,99055.56
2023-02-27T08:35:02.973Z,99054.66
2023-02-27T08:37:30.075Z,99069.19
2023-02-27T08:39:57.171Z,99066.91
2023-02-27T08:42:26.563Z,99073.09
2023-02-27T08:44:53.902Z,99059.97
2023-02-27T08:47:21.956Z,99059.41
2023-02-27T08:49:48.986Z,99062.31
2023-02-27T08:52:16.080Z,99070.09
2023-02-27T08:54:43.875Z,99074.81
2023-02-27T08:57:10.958Z,99069.72
2023-02-27T08:59:37.991Z,99076.88
2023-02-27T09:02:05.142Z,99080.94
2023-02-27T09:04:32.283Z,99070.78
2023-02-27T09:06:59.417Z,99078.34
2023-02-27T09:09:27.372Z,99080.22
2023-02-27T09:11:54.468Z,99080.13
2023-02-27T09:14:21.648Z,99083.91
2023-02-27T09:16:48.753Z,99078.47
2023-02-27T09:19:15.958Z,99082.66
2023-02-27T09:21:43.140Z,99093.25
2023-02-27T09:24:19.649Z,99087.44
2023-02-27T09:26:48.439Z,99092.34
2023-02-27T09:29:16.111Z,99090.69
2023-02-27T09:31:43.302Z,99098.56
2023-02-27T09:34:10.355Z,99088.41
2023-02-27T09:36:37.444Z,99076.72
2023-02-27T09:39:04.621Z,99084.94
2023-02-27T09:41:54.159Z,99090.50
2023-02-27T09:44:46.698Z,99078.47
2023-02-27T09:47:26.781Z,99091.75
2023-02-27T09:50:34.581Z,99083.09
2023-02-27T09:53:01.831Z,99083.75
2023-02-27T09:55:33.533Z,99083.56
2023-02-27T09:58:08.005Z,99076.91
2023-02-27T10:00:47.847Z,99078.75
2023-02-27T10:03:47.259Z,99091.78
2023-02-27T10:06:22.683Z,99093.31
2023-02-27T10:08:56.078Z,99085.13
2023-02-27T10:11:35.757Z,99089.34
2023-02-27T10:14:33.611Z,99097.09
2023-02-27T10:17:04.434Z,99094.72
2023-02-27T10:19:34.389Z,99104.31
2023-02-27T10:22:05.283Z,99103.28
2023-02-27T10:24:38.158Z,99105.66
2023-02-27T10:27:06.330Z,99106.41
2023-02-27T10:29:39.858Z,99110.28
2023-02-27T10:32:12.210Z,99106.19
2023-02-27T10:34:41.791Z,99116.97
2023-02-27T10:37:13.872Z,99113.41
2023-02-27T10:39:54.422Z,99111.47
2023-02-27T10:42:22.757Z,99118.69
2023-02-27T10:44:53.614Z,99128.38
2023-02-27T10:47:25.852Z,99128.06
2023-02-27T10:49:54.418Z,99131.25
2023-02-27T10:52:22.014Z,99132.59
2023-02-27T10:54:49.316Z,99123.88
2023-02-27T10:57:21.851Z,99126.19
2023-02-27T10:59:59.914Z,99120.16
2023-02-27T11:02:38.428Z,99120.50
2023-02-27T11:05:08.080Z,99120.91
2023-02-27T11:07:37.566Z,99114.09
2023-02-27T11:10:10.705Z,99114.88
2023-02-27T11:12:38.271Z,99112.84
2023-02-27T11:15:14.088Z,99104.69
2023-02-27T11:17:41.671Z,99104.34
2023-02-27T11:20:34.580Z,99101.66
2023-02-27T11:23:16.023Z,99108.56
2023-02-27T11:25:43.794Z,99106.22
2023-02-27T11:28:28.527Z,99103.16
2023-02-27T11:30:57.152Z,99109.56
2023-02-27T11:33:24.688Z,99104.88
2023-02-27T11:35:57.452Z,99099.06
2023-02-27T11:38:28.200Z,99097.13
2023-02-27T11:40:57.880Z,99101.31
2023-02-27T11:43:27.100Z,99098.31
2023-02-27T11:46:17.062Z,99096.25
2023-02-27T11:48:52.110Z,99103.91
2023-02-27T11:51:35.822Z,99095.00
2023-02-27T11:54:18.715Z,99099.63
2023-02-27T11:56:54.044Z,99106.09
2023-02-27T11:59:27.721Z,99094.16
2023-02-27T12:02:32.769Z,99097.09
2023-02-27T12:05:06.795Z,99090.63
2023-02-27T12:07:42.878Z,99087.94
2023-02-27T12:10:21.682Z,99094.91
2023-02-27T12:13:05.214Z,99090.69
2023-02-27T12:15:58.729Z,99092.97
2023-02-27T12:18:50.613Z,99087.94
2023-02-27T12:21:20.534Z,99093.66
2023-02-27T12:23:55.788Z,99093.81
2023-02-27T12:26:28.241Z,99094.56
2023-02-27T12:28:59.611Z,99097.59
2023-02-27T12:31:35.645Z,99104.09
2023-02-27T12:34:16.774Z,99082.56
2023-02-27T12:36:44.015Z,99098.78
2023-02-27T12:39:22.250Z,99092.63
2023-02-27T12:42:04.588Z,99092.63
2023-02-27T12:45:09.229Z,99092.47
2023-02-27T12:47:54.631Z,99091.53
2023-02-27T12:50:23.246Z,99091.53
2023-02-27T12:53:24.407Z,99084.84
2023-02-27T12:55:56.141Z,99085.94
2023-02-27T12:58:33.081Z,99078.53
2023-02-27T13:01:15.505Z,99084.47
2023-02-27T13:04:24.216Z,99084.78
2023-02-27T13:07:13.604Z,99086.88
2023-02-27T13:09:50.663Z,99080.66
2023-02-27T13:12:25.686Z,99076.22
2023-02-27T13:15:00.694Z,99076.56
2023-02-27T13:17:45.871Z,99076.03
2023-02-27T13:20:28.913Z,99076.69
2023-02-27T13:22:58.944Z,99082.72
2023-02-27T13:25:26.160Z,99079.19
2023-02-27T13:28:06.797Z,99082.09
2023-02-27T13:30:42.243Z,99076.28
2023-02-27T13:33:24.153Z,99073.25
2023-02-27T13:36:05.949Z,99077.25
2023-02-27T13:38:52.111Z,99067.03
2023-02-27T13:41:25.130Z,99067.34
2023-02-27T13:43:59.235Z,99062.59
2023-02-27T13:46:33.979Z,99063.38
2023-02-27T13:49:03.997Z,99061.44
2023-02-27T13:51:40.086Z,99059.91
2023-02-27T13:54:13.183Z,99070.34
2023-02-27T13:56:44.511Z,99065.16
2023-02-27T13:59:13.379Z,99065.72
2023-02-27T14:01:40.567Z,99069.91
2023-02-27T14:04:08.374Z,99073.25
2023-02-27T14:06:43.345Z,99073.38
2023-02-27T14:09:15.363Z,99073.16
2023-02-27T14:11:52.371Z,99071.00
2023-02-27T14:14:37.782Z,99070.56
2023-02-27T14:17:05.171Z,99073.63
2023-02-27T14:19:41.310Z,99075.75
2023-02-27T14:22:11.037Z,99063.56
2023-02-27T14:25:01.006Z,99063.03
2023-02-27T14:27:32.174Z,99063.56
2023-02-27T14:30:03.837Z,99064.84
2023-02-27T14:32:35.563Z,99063.53
2023-02-27T14:35:05.437Z,99062.91
2023-02-27T14:37:32.757Z,99064.00
2023-02-27T14:40:03.188Z,99067.91
2023-02-27T14:42:50.496Z,99073.81
2023-02-27T14:45:24.542Z,99078.56
2023-02-27T14:47:52.595Z,99074.47
2023-02-27T14:50:28.527Z,99088.91
2023-02-27T14:52:55.674Z,99078.34
2023-02-27T14:55:29.510Z,99081.47
2023-02-27T14:58:18.056Z,99086.97
2023-02-27T15:00:58.455Z,99086.00
2023-02-27T15:03:26.712Z,99083.63
2023-02-27T15:05:55.474Z,99081.78
2023-02-27T15:08:25.343Z,99084.25
2023-02-27T15:10:53.585Z,99083.50
2023-02-27T15:13:30.763Z,99081.78
2023-02-27T15:16:25.829Z,99087.59
2023-02-27T15:18:59.251Z,99089.41
2023-02-27T15:21:29.506Z,99085.66
2023-02-27T15:24:03.835Z,99089.22
2023-02-27T15:26:35.123Z,99086.84
2023-02-27T15:29:04.027Z,99085.84
2023-02-27T15:31:32.208Z,99088.97
2023-02-27T15:34:00.836Z,99095.22
2023-02-27T15:36:31.298Z,99097.69
2023-02-27T15:39:11.656Z,99102.31
2023-02-27T15:41:38.924Z,99099.31
2023-02-27T15:44:06.122Z,99102.50
2023-02-27T15:46:33.462Z,99094.09
2023-02-27T15:49:00.576Z,99103.03
2023-02-27T15:51:28.887Z,99101.50
2023-02-27T15:53:58.868Z,99099.25
2023-02-27T15:56:32.892Z,99104.75
2023-02-27T15:59:01.224Z,99100.19
2023-02-27T16:01:32.322Z,99107.63
2023-02-27T16:04:01.901Z,99120.22
2023-02-27T16:06:38.245Z,99118.72
2023-02-27T16:09:24.986Z,99123.25
2023-02-27T16:12:23.427Z,99122.50
2023-02-27T16:14:52.811Z,99126.13
2023-02-27T16:17:23.330Z,99128.16
2023-02-27T16:19:50.435Z,99126.72
2023-02-27T16:22:20.082Z,99129.03
2023-02-27T16:24:47.872Z,99134.41
2023-02-27T16:27:33.320Z,99139.78
2023-02-27T16:30:02.551Z,99135.25
2023-02-27T16:32:36.567Z,99134.59
2023-02-27T16:35:07.373Z,99133.47
2023-02-27T16:37:40.009Z,99140.81
2023-02-27T16:40:22.421Z,99143.16
2023-02-27T16:42:50.269Z,99150.91
2023-02-27T16:45:25.102Z,99148.28
2023-02-27T16:47:57.192Z,99150.22
2023-02-27T16:50:39.087Z,99153.28
2023-02-27T16:53:06.609Z,99147.53
2023-02-27T16:55:34.023Z,99144.09
2023-02-27T16:58:01.130Z,99148.28
2023-02-27T17:00:28.613Z,99152.16
2023-02-27T17:02:55.733Z,99151.84
2023-02-27T17:05:24.179Z,99156.78
2023-02-27T17:07:51.269Z,99158.84
2023-02-27T17:10:22.146Z,99163.84
2023-02-27T17:12:49.251Z,99165.47
2023-02-27T17:15:16.922Z,99163.31
2023-02-27T17:17:44.589Z,99172.19
2023-02-27T17:20:13.335Z,99154.97
2023-02-27T17:22:42.768Z,99162.28
2023-02-27T17:25:10.663Z,99165.41
2023-02-27T17:27:37.747Z,99165.47
2023-02-27T17:30:06.347Z,99168.59
2023-02-27T17:32:34.526Z,99173.97
2023-02-27T17:35:01.727Z,99180.09
2023-02-27T17:37:28.916Z,99180.84
2023-02-27T17:39:56.091Z,99187.09
2023-02-27T17:42:25.779Z,99183.22
2023-02-27T17:44:53.206Z,99177.91
2023-02-27T17:47:20.298Z,99185.97
2023-02-27T17:49:47.483Z,99187.09
2023-02-27T17:52:14.835Z,99189.25
2023-02-27T17:54:41.887Z,99193.13
2023-02-27T17:57:10.442Z,99191.56
2023-02-27T17:59:37.650Z,99191.56
2023-02-27T18:02:04.667Z,99190.69
2023-02-27T18:04:31.875Z,99197.31
2023-02-27T18:06:58.972Z,99197.41
2023-02-27T18:09:26.035Z,99197.00
2023-02-27T18:11:53.081Z,99195.50
2023-02-27T18:14:20.183Z,99200.19
2023-02-27T18:16:47.356Z,99195.22
2023-02-27T18:19:14.517Z,99193.72
2023-02-27T18:21:42.722Z,99194.03
2023-02-27T18:24:09.787Z,99201.44
2023-02-27T18:26:37.265Z,99203.81
2023-02-27T18:29:07.281Z,99201.88
2023-02-27T18:31:42.741Z,99203.88
2023-02-27T18:34:10.282Z,99192.69
2023-02-27T18:36:38.048Z,99204.28
2023-02-27T18:39:06.003Z,99210.09
2023-02-27T18:41:33.672Z,99199.75
2023-02-27T18:44:00.742Z,99199.75
2023-02-27T18:46:28.275Z,99200.59
2023-02-27T18:48:55.763Z,99204.78
2023-02-27T18:51:22.993Z,99199.91
2023-02-27T18:53:50.855Z,99199.97
2023-02-27T18:56:21.315Z,99200.50
2023-02-27T18:58:49.011Z,99198.22
2023-02-27T19:01:27.368Z,99207.03
2023-02-27T19:04:00.228Z,99212.81
2023-02-27T19:06:28.114Z,99210.97
2023-02-27T19:08:55.580Z,99212.06
2023-02-27T19:11:32.886Z,99212.41
2023-02-27T19:14:04.890Z,99209.47
2023-02-27T19:16:33.015Z,99214.88
2023-02-27T19:19:01.901Z,99209.19
2023-02-27T19:21:29.231Z,99217.66
2023-02-27T19:23:56.657Z,99218.91
2023-02-27T19:26:24.440Z,99217.38
2023-02-27T19:28:55.590Z,99220.50
2023-02-27T19:31:24.112Z,99222.91
2023-02-27T19:33:51.418Z,99219.06
2023-02-27T19:36:20.891Z,99216.38
2023-02-27T19:38:48.557Z,99214.50
2023-02-27T19:41:16.888Z,99216.16
2023-02-27T19:43:44.434Z,99213.97
2023-02-27T19:46:14.302Z,99216.66
2023-02-27T19:48:41.480Z,99215.91
2023-02-27T19:51:10.651Z,99228.22
2023-02-27T19:53:39.891Z,99218.38
2023-02-27T19:56:09.521Z,99219.56
2023-02-27T19:58:37.034Z,99228.00
2023-02-27T20:01:04.881Z,99221.97
2023-02-27T20:03:32.921Z,99229.69
2023-02-27T20:06:00.209Z,99230.06
2023-02-27T20:08:27.578Z,99226.75
2023-02-27T20:10:59.912Z,99228.47
2023-02-27T20:13:27.465Z,99234.59
2023-02-27T20:15:58.754Z,99229.94
2023-02-27T20:18:27.552Z,99228.78
2023-02-27T20:21:03.246Z,99229.09
2023-02-27T20:23:31.896Z,99233.72
2023-02-27T20:25:58.989Z,99229.31
2023-02-27T20:28:28.044Z,99230.25
2023-02-27T20:30:55.354Z,99224.81
2023-02-27T20:33:22.501Z,99222.44
2023-02-27T20:35:49.580Z,99226.56
2023-02-27T20:38:19.880Z,99217.06
2023-02-27T20:40:46.953Z,99219.03
2023-02-27T20:43:14.023Z,99231.03
2023-02-27T20:45:41.936Z,99227.97
2023-02-27T20:48:09.290Z,99225.00
2023-02-27T20:50:36.558Z,99232.31
2023-02-27T20:53:03.635Z,99227.28
2023-02-27T20:55:31.007Z,99220.75
2023-02-27T20:57:58.073Z,99223.44
2023-02-27T21:00:26.802Z,99229.09
2023-02-27T21:02:54.292Z,99229.34
2023-02-27T21:05:21.438Z,99237.41
2023-02-27T21:07:48.602Z,99226.06
2023-02-27T21:10:15.735Z,99223.00
2023-02-27T21:12:44.821Z,99229.56
2023-02-27T21:15:12.183Z,99225.25
2023-02-27T21:17:39.217Z,99221.78
2023-02-27T21:20:07.067Z,99229.34
2023-02-27T21:22:35.010Z,99231.25
2023-02-27T21:25:02.023Z,99232.81
2023-02-27T21:27:29.111Z,99223.19
2023-02-27T21:29:56.152Z,99230.81
2023-02-27T21:32:23.294Z,99232.00
2023-02-27T21:34:50.704Z,99227.72
2023-02-27T21:37:18.489Z,99235.84
2023-02-27T21:39:50.381Z,99229.31
2023-02-27T21:42:17.763Z,99233.16
2023-02-27T21:44:44.813Z,99238.47
2023-02-27T21:47:11.917Z,99232.03
2023-02-27T21:49:39.369Z,99225.47
2023-02-27T21:52:06.489Z,99231.91
2023-02-27T21:54:33.670Z,99231.53
2023-02-27T21:57:03.117Z,99232.63
2023-02-27T21:59:30.886Z,99234.06
2023-02-27T22:01:58.109Z,99229.81
2023-02-27T22:04:25.978Z,99233.94
2023-02-27T22:06:53.256Z,99222.78
2023-02-27T22:09:20.834Z,99230.03
2023-02-27T22:11:48.397Z,99234.16
2023-02-27T22:14:15.508Z,99230.69
2023-02-27T22:16:42.668Z,99228.38
2023-02-27T22:19:14.831Z,99231.75
2023-02-27T22:21:41.920Z,99228.72
2023-02-27T22:24:09.028Z,99237.94
2023-02-27T22:26:36.532Z,99232.91
2023-02-27T22:29:04.381Z,99227.53
2023-02-27T22:31:34.084Z,99230.22
2023-02-27T22:34:10.676Z,99228.72
2023-02-27T22:36:38.333Z,99221.84
2023-02-27T22:39:05.899Z,99237.19
2023-02-27T22:41:35.793Z,99228.78
2023-02-27T22:44:04.120Z,99225.00
2023-02-27T22:46:33.424Z,99222.72
2023-02-27T22:49:03.023Z,99227.34
2023-02-27T22:51:30.636Z,99229.59
2023-02-27T22:53:59.929Z,99226.91
2023-02-27T22:56:27.779Z,99225.31
2023-02-27T22:58:54.802Z,99224.16
2023-02-27T23:01:24.412Z,99224.16
2023-02-27T23:03:53.387Z,99231.88
2023-02-27T23:06:24.112Z,99226.09
2023-02-27T23:08:51.741Z,99230.66
2023-02-27T23:11:19.986Z,99233.66
2023-02-27T23:13:47.040Z,99230.56
2023-02-27T23:16:14.570Z,99230.66
2023-02-27T23:18:46.988Z,99230.22
2023-02-27T23:21:16.392Z,99240.63
2023-02-27T23:23:43.740Z,99224.94
2023-02-27T23:26:11.439Z,99234.16
2023-02-27T23:28:38.921Z,99237.94
2023-02-27T23:31:07.136Z,99236.44
2023-02-27T23:33:34.553Z,99239.88
2023-02-27T23:36:01.775Z,99231.81
2023-02-27T23:38:29.149Z,99247.09
2023-02-27T23:40:56.515Z,99241.72
2023-02-27T23:43:24.003Z,99241.81
2023-02-27T23:45:51.428Z,99243.31
2023-02-27T23:48:21.759Z,99248.34
2023-02-27T23:50:48.937Z,99250.25
2023-02-27T23:53:16.013Z,99248.41
2023-02-27T23:55:44.067Z,99249.50
2023-02-27T23:58:11.376Z,99252.69
